Time;durP1;ratioP1;P1;durP2;ratioP2;P2;SDS_P1;SDS_P2;PMS_P1;PMS_P2;Temp;Humidity;BMP_temperature;BMP_pressure;BME280_temperature;BME280_humidity;BME280_pressure;Samples;Min_cycle;Max_cycle;Signal;HPM_P1;HPM_P2
2021/06/13 00:00:43;;;;;;;30.50;13.30;;;;;;;-150.07;64.00;63006.53;4949504;29;20019;-81
2021/06/13 00:03:11;;;;;;;28.25;14.50;;;;;;;-150.07;64.47;62855.81;4952828;28;20544;-81
2021/06/13 00:05:38;;;;;;;26.13;13.50;;;;;;;-150.07;63.68;62952.09;4953882;28;20018;-78
2021/06/13 00:08:05;;;;;;;23.48;14.93;;;;;;;-150.07;62.80;63023.28;4952793;28;20086;-79
2021/06/13 00:10:31;;;;;;;22.67;12.13;;;;;;;-150.07;62.50;63006.53;4955513;28;20011;-80
2021/06/13 00:12:58;;;;;;;24.23;12.57;;;;;;;-150.07;63.40;62926.97;4970645;28;20035;-80
2021/06/13 00:15:26;;;;;;;23.33;13.85;;;;;;;-150.07;64.01;62811.84;4952518;28;20035;-79
2021/06/13 00:17:53;;;;;;;28.77;14.07;;;;;;;-150.07;62.88;63008.63;4951961;28;20023;-79
2021/06/13 00:20:24;;;;;;;30.13;14.65;;;;;;;-150.07;62.27;63119.56;4954832;28;20027;-80
2021/06/13 00:22:52;;;;;;;33.25;15.35;;;;;;;-150.07;62.05;63077.69;4960931;28;20094;-80
2021/06/13 00:25:19;;;;;;;22.55;13.20;;;;;;;-150.07;62.60;62926.97;4955285;28;20023;-79
2021/06/13 00:27:46;;;;;;;24.15;12.57;;;;;;;-150.07;62.30;63065.16;4948822;28;20481;-80
2021/06/13 00:30:14;;;;;;;21.08;12.27;;;;;;;-150.07;60.95;63086.06;4951913;28;20078;-79
2021/06/13 00:32:42;;;;;;;25.95;14.40;;;;;;;-150.07;61.98;63075.59;4957830;28;20114;-80
2021/06/13 00:35:09;;;;;;;24.20;14.27;;;;;;;-150.07;62.59;63033.75;4960093;28;20086;-81
2021/06/13 00:37:36;;;;;;;24.50;13.40;;;;;;;-150.07;63.83;62870.47;4962925;28;20528;-79
2021/06/13 00:40:06;;;;;;;32.63;15.40;;;;;;;-150.07;63.54;62939.53;4964298;28;20032;-79
2021/06/13 00:42:33;;;;;;;23.23;13.35;;;;;;;-150.07;62.96;62797.19;4963957;28;20101;-80
2021/06/13 00:44:59;;;;;;;27.60;14.07;;;;;;;-150.07;64.33;62841.16;4962341;28;20043;-79
2021/06/13 00:47:26;;;;;;;21.50;12.55;;;;;;;-150.07;64.70;62633.94;4961103;28;20038;-84
2021/06/13 00:49:54;;;;;;;23.48;14.25;;;;;;;-150.07;64.04;63069.31;4960933;28;20030;-79
2021/06/13 00:52:25;;;;;;;29.05;15.20;;;;;;;-150.07;63.54;63019.09;4964108;28;20034;-78
2021/06/13 00:54:52;;;;;;;36.53;18.45;;;;;;;-150.07;63.34;62885.13;4954526;28;20071;-79
2021/06/13 00:57:20;;;;;;;35.72;17.85;;;;;;;-150.07;63.81;62860.00;4953272;28;20054;-79
2021/06/13 00:59:47;;;;;;;41.13;18.05;;;;;;;-150.07;63.33;62906.06;4955245;28;20382;-78
2021/06/13 01:02:13;;;;;;;32.03;17.08;;;;;;;-150.07;63.57;63190.75;4955926;28;20114;-79
2021/06/13 01:04:40;;;;;;;38.88;18.73;;;;;;;-150.07;64.32;63578.06;4960662;28;20028;-77
2021/06/13 01:07:16;;;;;;;42.72;20.95;;;;;;;-150.07;64.40;62847.44;4966981;28;20046;-81
2021/06/13 01:10:08;;;;;;;40.95;17.80;;;;;;;-150.07;65.14;62721.84;4961285;28;20039;-78
2021/06/13 01:13:06;;;;;;;33.60;16.92;;;;;;;-150.07;64.37;62824.41;4957473;28;20023;-78
2021/06/13 01:15:43;;;;;;;32.58;15.50;;;;;;;-150.07;63.06;62876.75;4953630;28;20043;-81
2021/06/13 01:18:40;;;;;;;36.40;16.80;;;;;;;-150.07;63.98;63322.63;4958212;28;20158;-79
2021/06/13 01:21:13;;;;;;;42.42;17.63;;;;;;;-150.07;64.19;62740.69;4952921;28;20638;-79
2021/06/13 01:23:47;;;;;;;38.00;15.90;;;;;;;-150.07;65.69;62476.94;4954280;28;20043;-80
2021/06/13 01:26:47;;;;;;;44.03;18.13;;;;;;;-150.07;64.69;62734.41;4949506;28;20034;-80
2021/06/13 01:29:30;;;;;;;40.30;19.25;;;;;;;-150.07;66.06;62428.81;4954290;28;20042;-78
2021/06/13 01:32:01;;;;;;;36.60;17.67;;;;;;;-150.07;65.26;62749.06;4949065;28;20138;-77
2021/06/13 01:34:36;;;;;;;39.08;17.52;;;;;;;-150.07;64.54;62416.25;4953793;28;20035;-81
2021/06/13 01:37:10;;;;;;;36.90;15.57;;;;;;;-150.07;63.59;62878.84;4954593;28;20374;-81
2021/06/13 01:39:40;;;;;;;39.30;17.13;;;;;;;-150.07;62.58;62937.44;4961049;28;20055;-83
2021/06/13 01:42:06;;;;;;;;;;;;;;;-150.07;61.72;63056.78;4952022;28;20035;-86
2021/06/13 01:44:35;;;;;;;34.78;15.43;;;;;;;-150.07;62.72;62734.41;4955372;28;19921;-88
2021/06/13 01:47:04;;;;;;;37.55;15.10;;;;;;;-150.07;63.07;63701.56;4962025;28;20484;-87
2021/06/13 01:49:33;;;;;;;34.33;16.50;;;;;;;-150.07;61.55;63002.34;4959667;28;20404;-82
2021/06/13 01:52:00;;;;;;;41.28;18.02;;;;;;;-150.07;62.24;62970.94;4956181;28;20081;-82
2021/06/13 01:54:31;;;;;;;39.88;18.63;;;;;;;-150.07;60.95;62937.44;4952634;28;20035;-80
2021/06/13 01:56:59;;;;;;;39.33;17.20;;;;;;;-150.07;61.01;62979.31;4958343;28;20122;-77
2021/06/13 01:59:28;;;;;;;44.03;15.95;;;;;;;-150.07;62.29;63021.19;4968510;28;20018;-78
2021/06/13 02:01:58;;;;;;;43.00;17.08;;;;;;;-150.07;62.21;63580.16;4953813;28;20038;-77
2021/06/13 02:04:26;;;;;;;;;;;;;;;-150.07;61.15;63090.25;4961049;28;20022;-77
2021/06/13 02:06:59;;;;;;;44.08;16.67;;;;;;;-150.07;60.92;63031.66;4959451;28;20372;-77
2021/06/13 02:09:26;;;;;;;42.88;15.63;;;;;;;-150.07;60.92;62991.88;4960181;28;20015;-78
2021/06/13 02:11:57;;;;;;;51.00;18.25;;;;;;;-150.07;58.77;63366.59;4963890;28;20535;-79
2021/06/13 02:14:27;;;;;;;43.05;17.17;;;;;;;-150.07;58.37;63322.63;4954329;28;20035;-81
2021/06/13 02:16:54;;;;;;;;;;;;;;;-150.07;58.27;63425.22;4956486;28;20480;-80
2021/06/13 02:19:25;;;;;;;47.20;19.67;;;;;;;-150.07;58.97;63299.59;4957720;28;19910;-82
2021/06/13 02:21:57;;;;;;;44.72;18.35;;;;;;;-150.07;58.37;63333.09;4972057;28;20030;-83
2021/06/13 02:24:31;;;;;;;61.55;22.48;;;;;;;-150.07;59.09;63571.78;4969000;28;20405;-81
2021/06/13 02:26:59;;;;;;;46.47;20.23;;;;;;;-150.07;60.55;63123.75;4963497;28;20126;-84
2021/06/13 02:29:27;;;;;;;49.28;22.52;;;;;;;-150.07;60.10;63224.25;4977488;28;20025;-85
2021/06/13 02:31:55;;;;;;;52.95;21.23;;;;;;;-150.07;59.59;63638.78;4964408;28;20030;-81
2021/06/13 02:34:28;;;;;;;50.03;21.67;;;;;;;-150.07;58.94;64017.75;4977238;28;20039;-85
2021/06/13 02:36:59;;;;;;;47.05;22.13;;;;;;;-150.07;59.58;63205.41;4969521;28;20065;-81
2021/06/13 02:39:26;;;;;;;46.83;19.25;;;;;;;-150.07;59.69;63823.00;4968610;28;20030;-83
2021/06/13 02:41:53;;;;;;;43.10;20.70;;;;;;;-150.07;59.39;63333.09;4973245;28;20022;-88
2021/06/13 02:44:22;;;;;;;46.25;21.65;;;;;;;-150.07;59.65;64264.81;4980130;28;20059;-90
2021/06/13 02:46:49;;;;;;;54.45;25.05;;;;;;;-150.07;59.68;63316.34;4964890;28;20031;-90
2021/06/13 02:49:16;;;;;;;48.78;23.52;;;;;;;-150.07;60.15;64015.66;4960828;28;20101;-80
2021/06/13 02:51:57;;;;;;;59.00;25.23;;;;;;;-150.07;60.42;63073.50;4954703;28;20482;-80
2021/06/13 02:54:26;;;;;;;43.45;22.08;;;;;;;-150.07;60.47;63337.28;4967747;28;20034;-83
2021/06/13 02:56:59;;;;;;;50.55;23.15;;;;;;;-150.07;59.96;63320.53;4971368;28;20042;-81
2021/06/13 02:59:41;;;;;;;48.45;23.55;;;;;;;-150.07;60.43;63479.66;4971746;28;20031;-78
2021/06/13 03:02:12;;;;;;;49.90;25.52;;;;;;;-150.07;60.86;63054.69;4966667;28;20087;-80
2021/06/13 03:04:43;;;;;;;40.70;24.27;;;;;;;-150.07;60.78;63502.69;4969511;28;20038;-80
2021/06/13 03:07:14;;;;;;;39.30;21.95;;;;;;;-150.07;59.93;63236.81;4972281;28;20019;-80
2021/06/13 03:09:42;;;;;;;40.75;22.33;;;;;;;-150.07;60.28;63628.28;4978275;28;20100;-81
2021/06/13 03:12:10;;;;;;;55.53;27.42;;;;;;;-150.07;60.21;63123.75;4975522;28;20050;-81
2021/06/13 03:14:41;;;;;;;45.28;22.05;;;;;;;-150.07;59.90;63555.03;4981341;28;20075;-81
2021/06/13 03:17:09;;;;;;;42.63;21.95;;;;;;;-150.07;59.64;63515.25;4959715;28;20035;-81
2021/06/13 03:19:38;;;;;;;46.78;23.83;;;;;;;-150.07;60.60;63354.03;4955717;28;20022;-84
2021/06/13 03:22:06;;;;;;;50.00;23.88;;;;;;;-150.07;59.97;63379.16;4950383;28;20090;-83
2021/06/13 03:24:36;;;;;;;43.22;23.27;;;;;;;-150.07;60.55;63272.38;4952030;28;20027;-79
2021/06/13 03:27:04;;;;;;;41.50;21.60;;;;;;;-150.07;60.41;63333.09;4955213;28;20123;-87
2021/06/13 03:29:36;;;;;;;36.75;20.20;;;;;;;-150.07;60.52;63211.69;4979846;28;20102;-88
2021/06/13 03:32:06;;;;;;;38.33;21.45;;;;;;;-150.07;60.88;63312.16;4963511;28;20026;-79
2021/06/13 03:34:33;;;;;;;40.45;21.92;;;;;;;-150.07;60.31;63174.00;4970777;28;20039;-83
2021/06/13 03:37:00;;;;;;;42.92;24.35;;;;;;;-150.07;61.10;63220.06;4969174;28;20034;-88
2021/06/13 03:39:27;;;;;;;47.90;22.88;;;;;;;-150.07;61.07;63090.25;4968046;28;20047;-85
2021/06/13 03:41:55;;;;;;;42.78;23.30;;;;;;;-150.07;61.37;64080.56;4949659;28;20112;-83
2021/06/13 03:44:22;;;;;;;51.30;25.40;;;;;;;-150.07;62.71;63695.28;4967306;28;20026;-84
2021/06/13 03:46:51;;;;;;;41.33;21.05;;;;;;;-150.07;62.30;62897.69;4952828;28;20062;-86
2021/06/13 03:49:20;;;;;;;39.95;21.33;;;;;;;-150.07;62.00;62996.06;4953113;28;20039;-81
2021/06/13 03:51:48;;;;;;;32.35;18.65;;;;;;;-150.07;60.70;64011.47;4968964;28;20062;-83
2021/06/13 03:54:14;;;;;;;32.03;18.67;;;;;;;-150.07;61.15;63998.91;4963154;28;20572;-84
2021/06/13 03:56:46;;;;;;;38.88;21.73;;;;;;;-150.07;61.06;63249.38;4950866;28;20031;-84
2021/06/13 03:59:16;;;;;;;30.65;18.13;;;;;;;-150.07;62.67;63894.19;4955781;28;20031;-84
2021/06/13 04:01:45;;;;;;;27.77;16.60;;;;;;;-150.07;62.64;63165.63;4950259;28;20496;-78
2021/06/13 04:04:13;;;;;;;31.13;20.08;;;;;;;-150.07;63.96;63781.13;4947009;28;20543;-79
2021/06/13 04:06:42;;;;;;;34.72;20.92;;;;;;;-150.07;63.20;63408.47;4951001;28;20031;-79
2021/06/13 04:09:12;;;;;;;38.22;20.70;;;;;;;-150.07;63.35;63806.25;4964900;28;20038;-95
2021/06/13 04:11:40;;;;;;;40.60;21.38;;;;;;;-150.07;63.53;63035.84;4962851;28;20027;-84
2021/06/13 04:14:10;;;;;;;31.25;18.40;;;;;;;-150.07;63.26;63027.47;4959011;28;20512;-82
2021/06/13 04:16:36;;;;;;;;;;;;;;;-150.07;62.75;63098.63;4959757;28;20500;-80
2021/06/13 04:19:04;;;;;;;32.85;20.55;;;;;;;-150.07;63.29;62571.13;4956835;28;19914;-82
2021/06/13 04:21:31;;;;;;;35.25;21.25;;;;;;;-150.07;64.03;62910.25;4972855;28;20027;-83
2021/06/13 04:23:59;;;;;;;37.05;20.23;;;;;;;-150.07;64.29;62922.78;4972984;28;20088;-82
2021/06/13 04:26:27;;;;;;;28.92;19.45;;;;;;;-150.07;64.93;62757.44;4965612;28;20046;-78
2021/06/13 04:28:54;;;;;;;36.55;21.00;;;;;;;-150.07;64.27;62770.00;4955310;28;20489;-82
2021/06/13 04:31:20;;;;;;;29.50;20.90;;;;;;;-150.07;64.19;62958.38;4957581;28;20489;-82
2021/06/13 04:33:49;;;;;;;31.02;17.52;;;;;;;-150.07;64.22;63100.72;4960293;28;20528;-79
2021/06/13 04:36:18;;;;;;;29.08;17.92;;;;;;;-150.07;64.57;62851.63;4955773;28;20028;-79
2021/06/13 04:38:48;;;;;;;25.20;18.10;;;;;;;-150.07;62.96;63938.16;4955901;28;20493;-80
2021/06/13 04:41:17;;;;;;;21.52;16.95;;;;;;;-150.07;62.43;62962.56;4958344;28;20031;-81
2021/06/13 04:43:44;;;;;;;25.33;17.30;;;;;;;-150.07;63.39;62807.66;4958529;28;20039;-89
2021/06/13 04:46:13;;;;;;;21.48;14.80;;;;;;;-150.07;62.35;62843.25;4954430;28;20161;-81
2021/06/13 04:48:41;;;;;;;22.65;15.35;;;;;;;-150.07;62.77;63161.44;4963416;28;20035;-85
2021/06/13 04:51:12;;;;;;;22.92;17.33;;;;;;;-150.07;62.90;62968.84;4956360;28;20114;-83
2021/06/13 04:53:51;;;;;;;21.35;16.13;;;;;;;-150.07;62.28;63217.97;4949740;28;20389;-84
2021/06/13 04:56:35;;;;;;;25.02;17.30;;;;;;;-150.07;62.03;63274.47;4952231;28;20027;-77
2021/06/13 04:59:02;;;;;;;24.50;16.25;;;;;;;-150.07;61.20;63282.84;4935580;29;20066;-77
2021/06/13 05:01:30;;;;;;;17.30;14.63;;;;;;;-150.07;61.54;63291.22;4939531;29;20033;-77
2021/06/13 05:03:58;;;;;;;22.25;17.60;;;;;;;-150.07;60.91;63199.13;4954470;28;20040;-77
2021/06/13 05:06:25;;;;;;;20.55;15.82;;;;;;;-150.07;60.75;63287.03;4954436;28;20031;-77
2021/06/13 05:08:52;;;;;;;19.50;15.23;;;;;;;-150.07;60.47;63186.56;4950782;29;20043;-77
2021/06/13 05:11:19;;;;;;;30.38;15.52;;;;;;;-150.07;60.49;63324.72;4955199;29;20028;-76
2021/06/13 05:13:46;;;;;;;26.15;15.07;;;;;;;-150.07;61.22;63165.63;4954546;29;20035;-79
2021/06/13 05:16:13;;;;;;;18.40;13.65;;;;;;;-150.07;60.97;64009.38;4954627;28;20086;-77
2021/06/13 05:18:40;;;;;;;15.70;13.90;;;;;;;-150.07;60.52;63400.09;4955095;28;20023;-78
2021/06/13 05:21:07;;;;;;;22.77;15.98;;;;;;;-150.07;60.33;63368.69;4955514;28;20425;-78
2021/06/13 05:23:35;;;;;;;15.95;14.27;;;;;;;-150.07;60.11;63383.34;4955467;28;20034;-78
2021/06/13 05:26:02;;;;;;;18.20;14.32;;;;;;;-150.07;60.64;63358.22;4954522;28;20426;-77
2021/06/13 05:28:29;;;;;;;21.38;15.43;;;;;;;-150.07;59.78;63810.44;4955194;28;20039;-77
2021/06/13 05:30:57;;;;;;;20.95;14.77;;;;;;;-150.07;59.72;63274.47;4955143;28;20024;-77
2021/06/13 05:33:24;;;;;;;21.73;13.73;;;;;;;-150.07;59.57;63454.53;4954726;28;20080;-77
2021/06/13 05:35:52;;;;;;;16.00;13.52;;;;;;;-150.07;59.48;63467.09;4953825;28;20054;-78
2021/06/13 05:38:19;;;;;;;18.75;14.10;;;;;;;-150.07;58.97;63513.16;4954909;28;20109;-77
2021/06/13 05:40:46;;;;;;;20.73;14.50;;;;;;;-150.07;59.23;64130.81;4954463;28;20090;-77
2021/06/13 05:43:13;;;;;;;22.85;14.30;;;;;;;-150.07;59.78;63523.63;4954852;28;20047;-77
2021/06/13 05:45:41;;;;;;;17.15;14.43;;;;;;;-150.07;58.92;63619.91;4953686;28;20019;-79
2021/06/13 05:48:09;;;;;;;22.75;16.85;;;;;;;-150.07;58.84;63628.28;4955165;28;20027;-78
2021/06/13 05:50:36;;;;;;;20.15;15.60;;;;;;;-150.07;58.59;63653.41;4954960;28;20062;-79
2021/06/13 05:53:05;;;;;;;24.65;18.63;;;;;;;-150.07;58.62;63601.09;4972795;28;20111;-77
2021/06/13 05:55:32;;;;;;;24.73;15.10;;;;;;;-150.07;58.87;63599.00;4973197;28;20074;-79
2021/06/13 05:57:59;;;;;;;22.63;17.52;;;;;;;-150.07;59.39;63525.72;4973232;28;20018;-77
2021/06/13 06:00:28;;;;;;;23.05;16.60;;;;;;;-150.07;59.11;63111.19;4963390;28;20035;-77
2021/06/13 06:02:55;;;;;;;26.75;18.42;;;;;;;-150.07;59.40;63454.53;4958287;28;20055;-79
2021/06/13 06:05:23;;;;;;;18.00;15.65;;;;;;;-150.07;58.94;64107.78;4950742;28;20027;-79
2021/06/13 06:07:51;;;;;;;22.80;16.98;;;;;;;-150.07;59.02;63542.47;4953310;28;20082;-78
2021/06/13 06:10:30;;;;;;;18.83;16.25;;;;;;;-150.07;60.01;63860.69;4953165;28;20055;-82
2021/06/13 06:13:07;;;;;;;25.50;17.10;;;;;;;-150.07;59.48;63555.03;4954087;28;20404;-78
2021/06/13 06:15:54;;;;;;;21.52;14.65;;;;;;;-150.07;58.84;63605.28;4952380;28;20035;-77
2021/06/13 06:18:21;;;;;;;23.38;15.68;;;;;;;-150.07;58.71;63540.38;4958729;28;20031;-80
2021/06/13 06:20:50;;;;;;;16.65;12.85;;;;;;;-150.07;58.16;63762.28;4958041;28;20548;-78
2021/06/13 06:23:20;;;;;;;19.70;15.20;;;;;;;-150.07;58.30;64354.88;4960039;28;20035;-79
2021/06/13 06:25:57;;;;;;;;;;;;;;;;;;;;;
2021/06/13 06:28:40;;;;;;;18.45;12.77;;;;;;;-150.07;58.10;63341.47;4955849;28;20050;-78
2021/06/13 06:34:26;;;;;;;20.55;15.00;;;;;;;-150.07;58.82;64382.09;4961019;28;20046;-79
2021/06/13 06:37:02;;;;;;;16.42;12.02;;;;;;;-150.07;59.11;62993.97;4954132;28;20035;-79
2021/06/13 06:39:32;;;;;;;17.98;12.52;;;;;;;-150.07;59.83;63153.06;4953950;28;20082;-81
2021/06/13 06:44:47;;;;;;;11.43;8.18;;;;;;;-150.07;59.05;64315.09;4953877;28;20047;-81
2021/06/13 06:47:14;;;;;;;8.38;7.38;;;;;;;-150.07;58.88;64375.81;4953025;28;20023;-82
2021/06/13 06:49:43;;;;;;;10.73;9.63;;;;;;;-150.07;58.63;63584.34;4951284;28;20094;-81
2021/06/13 06:52:13;;;;;;;13.07;8.03;;;;;;;-150.07;59.02;63479.66;4966080;28;20237;-80
2021/06/13 06:54:40;;;;;;;10.98;9.07;;;;;;;-150.07;59.19;64111.97;4952672;28;20848;-81
2021/06/13 06:57:10;;;;;;;9.45;7.25;;;;;;;-150.07;59.21;62960.47;4950446;28;20039;-82
2021/06/13 06:59:37;;;;;;;11.15;8.55;;;;;;;-150.07;59.52;63207.50;4952678;28;20035;-82
2021/06/13 07:02:08;;;;;;;12.93;7.18;;;;;;;-150.07;58.77;63469.19;4946968;28;20107;-82
2021/06/13 07:04:41;;;;;;;9.65;8.63;;;;;;;-150.07;59.87;63220.06;4953035;28;20203;-81
2021/06/13 07:07:08;;;;;;;12.13;8.00;;;;;;;-150.07;59.87;63950.72;4951158;28;20039;-82
2021/06/13 07:09:36;;;;;;;10.50;9.18;;;;;;;-150.07;58.85;63732.97;4963674;28;20030;-82
2021/06/13 07:12:03;;;;;;;10.68;8.18;;;;;;;-150.07;59.27;63000.25;4962645;28;20026;-82
2021/06/13 07:14:30;;;;;;;9.95;7.15;;;;;;;-150.07;59.97;63287.03;4962590;28;20481;-81
2021/06/13 07:16:57;;;;;;;9.82;8.70;;;;;;;-150.07;60.29;63058.88;4950717;28;20721;-77
2021/06/13 07:19:27;;;;;;;11.20;8.57;;;;;;;-150.07;60.67;63475.47;4959592;28;20020;-80
2021/06/13 07:21:57;;;;;;;7.75;6.95;;;;;;;-150.07;61.19;63498.50;4950351;29;20408;-83
2021/06/13 07:24:24;;;;;;;9.40;6.50;;;;;;;-150.07;60.26;62922.78;4952028;28;20031;-80
2021/06/13 07:26:51;;;;;;;6.47;5.40;;;;;;;-150.07;60.25;62813.94;4948869;28;20039;-78
2021/06/13 07:29:18;;;;;;;5.95;5.32;;;;;;;-150.07;59.18;63852.31;4951726;28;20134;-78
2021/06/13 07:31:49;;;;;;;10.57;4.55;;;;;;;-150.07;59.66;62855.81;4952020;28;20042;-78
2021/06/13 07:34:17;;;;;;;9.60;7.45;;;;;;;-150.07;60.72;62780.44;4952098;28;20416;-78
2021/06/13 07:36:47;;;;;;;7.47;5.95;;;;;;;-150.07;62.10;62968.84;4960868;28;20027;-78
2021/06/13 07:39:14;;;;;;;7.38;6.68;;;;;;;-150.07;61.90;62535.56;4950265;28;20054;-78
2021/06/13 07:41:42;;;;;;;5.78;5.22;;;;;;;-150.07;61.88;62855.81;4949101;28;20070;-78
2021/06/13 07:44:12;;;;;;;7.47;6.32;;;;;;;-150.07;61.85;62744.88;4952128;28;20094;-77
2021/06/13 07:46:46;;;;;;;8.43;6.60;;;;;;;-150.07;61.39;62313.69;4952242;28;20138;-77
2021/06/13 07:49:15;;;;;;;7.85;6.55;;;;;;;-150.07;61.47;62546.03;4948742;28;20499;-78
2021/06/13 07:51:46;;;;;;;8.20;5.47;;;;;;;-150.07;61.20;63555.03;4949312;28;20031;-83
2021/06/13 07:54:16;;;;;;;5.53;5.00;;;;;;;-150.07;61.03;63456.63;4958092;28;20039;-84
2021/06/13 07:56:48;;;;;;;9.45;6.22;;;;;;;-150.07;60.99;63563.41;4963594;28;20023;-77
2021/06/13 07:59:28;;;;;;;8.10;6.15;;;;;;;-150.07;61.00;62391.13;4950576;28;20126;-86
2021/06/13 08:01:58;;;;;;;;;;;;;;;-150.07;61.98;62843.25;4956115;28;20163;-77
2021/06/13 08:04:27;;;;;;;;;;;;;;;-150.07;62.55;62855.81;4955711;28;19925;-79
2021/06/13 08:07:04;;;;;;;7.43;6.72;;;;;;;-150.07;62.21;62587.88;4954858;28;20340;-86
2021/06/13 08:09:34;;;;;;;9.02;6.82;;;;;;;-150.07;62.85;63176.09;4972258;28;20027;-86
2021/06/13 08:12:00;;;;;;;;;;;;;;;-150.07;62.69;62876.75;4961218;28;20063;-78
2021/06/13 08:14:27;;;;;;;5.90;5.30;;;;;;;-150.07;63.18;62077.19;4954329;28;19919;-78
2021/06/13 08:16:58;;;;;;;5.78;5.25;;;;;;;-150.07;62.30;63425.22;4954889;28;20023;-77
2021/06/13 08:19:25;;;;;;;5.30;4.72;;;;;;;-150.07;61.72;62506.25;4955621;28;20577;-78
2021/06/13 08:21:52;;;;;;;6.75;5.68;;;;;;;-150.07;61.82;62694.63;4954244;28;20115;-77
2021/06/13 08:24:19;;;;;;;6.05;5.45;;;;;;;-150.07;62.12;62433.00;4952965;28;20015;-77
2021/06/13 08:26:46;;;;;;;6.25;5.22;;;;;;;-150.07;61.87;63301.69;4961045;28;20037;-79
2021/06/13 08:29:13;;;;;;;6.25;5.65;;;;;;;-150.07;62.40;62705.09;4955161;28;20030;-77
2021/06/13 08:31:49;;;;;;;6.15;5.32;;;;;;;-150.07;63.81;62512.53;4958805;28;20026;-77
2021/06/13 08:34:16;;;;;;;6.35;5.72;;;;;;;-150.07;63.77;62964.66;4958380;28;20412;-78
2021/06/13 08:36:43;;;;;;;6.70;6.00;;;;;;;-150.07;64.46;62621.38;4957511;28;20027;-78
2021/06/13 08:39:11;;;;;;;7.45;6.40;;;;;;;-150.07;64.40;62631.84;4966007;28;20047;-77
2021/06/13 08:41:37;;;;;;;5.88;5.38;;;;;;;-150.07;64.20;62694.63;4952827;28;20038;-77
2021/06/13 08:44:06;;;;;;;7.03;6.43;;;;;;;-150.07;64.94;62386.94;4960841;28;20114;-77
2021/06/13 08:46:33;;;;;;;10.90;6.55;;;;;;;-150.07;65.57;62556.47;4961338;28;20031;-76
2021/06/13 08:49:00;;;;;;;7.82;5.68;;;;;;;-150.07;65.52;62839.06;4959496;28;20488;-77
2021/06/13 08:51:27;;;;;;;11.10;7.60;;;;;;;-150.07;66.01;62901.88;4960802;28;20039;-78
2021/06/13 08:53:54;;;;;;;10.13;6.43;;;;;;;-150.07;66.40;62839.06;4958002;28;20061;-77
2021/06/13 08:56:22;;;;;;;8.52;7.00;;;;;;;-150.07;65.64;62556.47;4958012;28;20023;-77
2021/06/13 08:58:51;;;;;;;7.88;7.18;;;;;;;-150.07;64.06;62485.31;4958786;28;20039;-77
2021/06/13 09:01:18;;;;;;;8.70;7.20;;;;;;;-150.07;63.45;62749.06;4963647;28;20022;-77
2021/06/13 09:03:45;;;;;;;8.02;5.72;;;;;;;-150.07;63.16;63546.66;4954912;28;20082;-77
2021/06/13 09:06:13;;;;;;;7.43;6.72;;;;;;;-150.07;62.73;63588.53;4969741;28;20030;-77
2021/06/13 09:08:45;;;;;;;7.80;7.00;;;;;;;-150.07;63.42;62462.28;4973995;28;20015;-77
2021/06/13 09:11:28;;;;;;;13.07;7.55;;;;;;;-150.07;63.96;62022.78;4969999;28;20035;-77
2021/06/13 09:14:11;;;;;;;12.02;7.35;;;;;;;-150.07;63.43;63014.91;4968682;28;20449;-76
2021/06/13 09:16:47;;;;;;;7.57;6.80;;;;;;;-150.07;62.95;63504.78;4957318;28;20039;-77
2021/06/13 09:19:14;;;;;;;8.05;7.28;;;;;;;-150.07;62.32;62349.28;4972669;28;20476;-77
2021/06/13 09:21:41;;;;;;;10.05;7.45;;;;;;;-150.07;62.87;62778.38;4952255;28;20035;-78
2021/06/13 09:24:27;;;;;;;7.43;6.43;;;;;;;-150.07;62.77;62910.25;4954256;28;20066;-76
2021/06/13 09:27:08;;;;;;;9.15;6.63;;;;;;;-150.07;62.27;62554.41;4952003;28;20045;-78
2021/06/13 09:29:52;;;;;;;9.43;7.65;;;;;;;-150.07;62.65;62885.13;4953728;28;20043;-84
2021/06/13 09:32:19;;;;;;;7.35;6.68;;;;;;;-150.07;63.20;62797.19;4957207;28;20034;-77
2021/06/13 09:34:46;;;;;;;6.35;5.70;;;;;;;-150.07;63.16;63360.31;4953682;28;20094;-77
2021/06/13 09:37:13;;;;;;;7.60;6.45;;;;;;;-150.07;63.98;62579.50;4956708;28;20027;-78
2021/06/13 09:39:40;;;;;;;8.45;7.35;;;;;;;-150.07;64.75;62466.47;4953307;28;20039;-78
2021/06/13 09:42:09;;;;;;;9.52;7.70;;;;;;;-150.07;64.00;62659.03;4952906;28;20031;-77
2021/06/13 09:44:36;;;;;;;9.73;7.15;;;;;;;-150.07;63.95;63010.72;4953814;28;20015;-77
2021/06/13 09:47:28;;;;;;;8.20;7.40;;;;;;;-150.07;63.90;62784.63;4953844;28;20027;-77
2021/06/13 09:52:53;;;;;;;12.23;10.80;;;;;;;-150.07;63.22;62451.84;4955132;28;20040;-77
2021/06/13 09:55:21;;;;;;;14.02;11.18;;;;;;;-150.07;63.74;62855.81;4967515;28;20037;-77
2021/06/13 09:58:07;;;;;;;12.35;11.00;;;;;;;-150.07;62.27;62797.19;4965342;28;20075;-78
2021/06/13 10:00:34;;;;;;;12.32;10.45;;;;;;;-150.07;61.84;62933.25;4953004;28;20038;-77
2021/06/13 10:03:21;;;;;;;13.02;11.52;;;;;;;-150.07;62.20;62956.28;4953599;28;20035;-77
2021/06/13 10:05:59;;;;;;;12.57;11.05;;;;;;;-150.07;63.12;62843.25;4955504;28;20077;-76
2021/06/13 10:08:29;;;;;;;13.07;11.80;;;;;;;-150.07;63.95;63209.59;4960654;28;20130;-78
2021/06/13 10:10:58;;;;;;;13.38;11.85;;;;;;;-150.07;64.13;62826.50;4956525;28;20171;-77
2021/06/13 10:13:44;;;;;;;14.95;11.77;;;;;;;-150.07;64.31;62797.19;4953577;28;20024;-77
2021/06/13 10:16:31;;;;;;;15.07;13.48;;;;;;;-150.07;64.74;62510.44;4949481;28;20039;-77
2021/06/13 10:19:00;;;;;;;19.70;14.02;;;;;;;-150.07;64.51;62851.63;4952811;28;20030;-77
2021/06/13 10:21:30;;;;;;;16.52;14.45;;;;;;;-150.07;63.86;62860.00;4958277;28;20026;-79
2021/06/13 10:23:58;;;;;;;20.30;17.00;;;;;;;-150.07;63.70;62834.88;4970170;28;20030;-76
2021/06/13 10:26:28;;;;;;;16.30;14.25;;;;;;;-150.07;63.52;62516.72;4952711;28;20011;-77
2021/06/13 10:28:56;;;;;;;16.08;13.48;;;;;;;-150.07;63.92;62730.22;4949335;28;20093;-77
2021/06/13 10:31:23;;;;;;;16.42;12.55;;;;;;;-150.07;63.39;62914.41;4956879;28;20018;-77
2021/06/13 10:33:50;;;;;;;17.35;12.88;;;;;;;-150.07;64.54;62738.59;4954007;28;20058;-76
2021/06/13 10:36:18;;;;;;;15.15;13.00;;;;;;;-150.07;64.97;62786.72;4957645;28;20381;-78
2021/06/13 10:38:48;;;;;;;14.80;11.70;;;;;;;-150.07;64.76;62843.25;4952158;28;20081;-77
2021/06/13 10:41:15;;;;;;;15.88;12.30;;;;;;;-150.07;64.39;62901.88;4956619;28;20114;-78
2021/06/13 10:43:44;;;;;;;16.65;12.98;;;;;;;-150.07;64.32;62751.16;4950077;28;20050;-79
2021/06/13 10:46:31;;;;;;;13.02;11.82;;;;;;;-150.07;65.89;62617.19;4955941;28;20042;-84
2021/06/13 10:49:00;;;;;;;19.88;15.32;;;;;;;-150.07;66.90;63358.22;4956052;28;20023;-79
2021/06/13 10:51:34;;;;;;;20.88;13.95;;;;;;;-150.07;67.13;62604.63;4960326;28;20492;-79
2021/06/13 10:54:19;;;;;;;15.55;13.90;;;;;;;-150.07;67.67;62627.66;4950981;28;20027;-80
2021/06/13 10:56:47;;;;;;;18.48;16.27;;;;;;;-150.07;68.08;62389.03;4941751;28;20154;-80
2021/06/13 10:59:18;;;;;;;20.17;16.05;;;;;;;-150.07;68.70;62508.34;4953317;28;20032;-81
2021/06/13 11:02:11;;;;;;;23.10;17.52;;;;;;;-150.07;67.70;63125.84;4954276;28;20028;-80
2021/06/13 11:04:47;;;;;;;20.92;17.95;;;;;;;-150.07;68.20;62424.63;4951849;28;20036;-83
2021/06/13 11:07:30;;;;;;;21.38;17.55;;;;;;;-150.07;68.87;62495.78;4942467;28;20034;-81
2021/06/13 11:10:10;;;;;;;25.25;19.80;;;;;;;-150.07;69.66;62523.00;4940795;28;20078;-82
2021/06/13 11:13:00;;;;;;;23.73;20.15;;;;;;;-150.07;69.05;62600.44;4953229;28;20023;-76
2021/06/13 11:15:31;;;;;;;27.10;20.42;;;;;;;-150.07;68.68;62585.78;4947990;28;20396;-78
2021/06/13 11:18:06;;;;;;;25.50;21.23;;;;;;;-150.07;68.25;62531.38;4951065;28;20027;-76
2021/06/13 11:20:53;;;;;;;31.40;23.00;;;;;;;-150.07;69.03;62499.97;4950820;28;20034;-78
2021/06/13 11:23:23;;;;;;;32.30;22.67;;;;;;;-150.07;69.99;62550.22;4942116;28;20038;-77
2021/06/13 11:26:01;;;;;;;34.22;25.88;;;;;;;-150.07;70.14;62481.13;4950620;28;20054;-77
2021/06/13 11:28:31;;;;;;;36.10;26.50;;;;;;;-150.07;70.13;62451.84;4951348;28;20035;-77
2021/06/13 11:30:59;;;;;;;41.55;27.80;;;;;;;-150.07;71.08;62349.28;4950938;28;20111;-77
2021/06/13 11:33:39;;;;;;;38.85;24.77;;;;;;;-150.07;70.90;62407.88;4966770;28;20129;-77